Time;durP1;ratioP1;P1;durP2;ratioP2;P2;SDS_P1;SDS_P2;PMS_P1;PMS_P2;Temp;Humidity;BMP_temperature;BMP_pressure;BME280_temperature;BME280_humidity;BME280_pressure;Samples;Min_cycle;Max_cycle;Signal;HPM_P1;HPM_P2
2024/01/25 00:00:07;;;;;;;38.08;25.33;;;205.00;2252.80;;;;;;4775043;30;20135;-76
2024/01/25 00:02:32;;;;;;;32.50;20.45;;;204.80;2252.80;;;;;;4770740;30;20435;-76
2024/01/25 00:04:58;;;;;;;42.25;24.92;;;180.10;2252.80;;;;;;4769846;30;20047;-76
2024/01/25 00:07:24;;;;;;;60.25;35.20;;;179.90;2252.80;;;;;;4781203;30;20088;-77
2024/01/25 00:09:50;;;;;;;55.47;36.45;;;179.70;2252.80;;;;;;4774852;30;20040;-76
2024/01/25 00:12:16;;;;;;;58.42;38.72;;;179.80;2252.80;;;;;;4783995;30;20448;-77
2024/01/25 00:14:42;;;;;;;52.28;35.83;;;179.70;2252.80;;;;;;4777265;30;20035;-76
2024/01/25 00:17:08;;;;;;;43.72;29.88;;;179.90;2252.80;;;;;;4780776;30;20028;-76
2024/01/25 00:19:37;;;;;;;47.80;33.53;;;180.10;2252.80;;;;;;4787693;30;20028;-76
2024/01/25 00:22:03;;;;;;;44.22;32.58;;;180.10;2252.80;;;;;;4765668;30;20107;-77
2024/01/25 00:24:28;;;;;;;43.83;29.83;;;204.80;2252.80;;;;;;4783393;30;20067;-76
2024/01/25 00:26:54;;;;;;;36.05;26.90;;;204.90;2252.80;;;;;;4777297;30;20040;-76
2024/01/25 00:29:20;;;;;;;76.72;41.33;;;204.90;2252.80;;;;;;4774779;29;20031;-75
2024/01/25 00:31:46;;;;;;;93.40;46.20;;;205.00;2252.80;;;;;;4772207;30;20040;-75
2024/01/25 00:34:18;;;;;;;71.00;44.78;;;205.00;2252.80;;;;;;4775740;29;20047;-78
2024/01/25 00:36:45;;;;;;;28.07;17.87;;;205.10;2252.80;;;;;;4790609;29;20089;-76
2024/01/25 00:39:33;;;;;;;27.85;16.73;;;205.10;2252.80;;;;;;4795409;29;20032;-76
2024/01/25 00:42:05;;;;;;;49.58;30.48;;;205.10;2252.80;;;;;;4787005;30;20074;-75
2024/01/25 00:44:35;;;;;;;87.60;51.83;;;205.20;2252.80;;;;;;4793609;29;20077;-75
2024/01/25 00:47:03;;;;;;;26.45;18.05;;;205.20;2252.80;;;;;;4793016;29;20034;-77
2024/01/25 00:49:31;;;;;;;21.52;11.50;;;205.20;2252.80;;;;;;4796198;30;20080;-78
2024/01/25 00:52:00;;;;;;;19.52;11.30;;;205.10;2252.80;;;;;;4803009;24;20058;-76
2024/01/25 00:54:26;;;;;;;21.38;11.00;;;205.20;2252.80;;;;;;4796116;29;20039;-76
2024/01/25 00:56:52;;;;;;;23.95;13.43;;;205.20;2252.80;;;;;;4808707;24;20123;-76
2024/01/25 00:59:25;;;;;;;20.15;14.40;;;205.30;2252.80;;;;;;4783562;30;20127;-76
2024/01/25 01:01:55;;;;;;;27.23;17.05;;;205.30;2252.80;;;;;;4802791;29;20035;-76
2024/01/25 01:04:25;;;;;;;32.97;20.48;;;205.40;2252.80;;;;;;4786257;30;20073;-76
2024/01/25 01:07:05;;;;;;;66.18;38.25;;;205.40;2252.80;;;;;;4799502;30;20050;-75
2024/01/25 01:09:31;;;;;;;56.28;33.08;;;205.40;2252.80;;;;;;4799792;30;20035;-76
2024/01/25 01:12:24;;;;;;;101.07;80.05;;;205.10;2252.80;;;;;;4798390;30;20390;-75
2024/01/25 01:14:51;;;;;;;150.10;95.95;;;205.10;2252.80;;;;;;4804867;29;20038;-77
2024/01/25 01:17:18;;;;;;;121.60;75.80;;;204.80;2252.80;;;;;;4806153;29;20035;-76
2024/01/25 01:19:44;;;;;;;174.15;109.63;;;204.80;2252.80;;;;;;4802986;29;20042;-76
2024/01/25 01:22:10;;;;;;;115.57;67.93;;;204.80;2252.80;;;;;;4776554;30;20534;-77
2024/01/25 01:24:39;;;;;;;107.05;67.55;;;180.10;2252.80;;;;;;4778832;29;20033;-76
2024/01/25 01:27:05;;;;;;;98.18;58.80;;;179.80;2252.80;;;;;;4790963;29;20040;-77
2024/01/25 01:29:30;;;;;;;133.80;76.13;;;179.90;2252.80;;;;;;4777042;30;20053;-77
2024/01/25 01:31:56;;;;;;;117.28;76.20;;;180.00;2252.80;;;;;;4775102;30;20538;-77
2024/01/25 01:34:22;;;;;;;159.63;101.32;;;179.80;2252.80;;;;;;4800874;24;20023;-76
2024/01/25 01:36:48;;;;;;;108.60;66.05;;;179.80;2252.80;;;;;;4775424;30;20055;-76
2024/01/25 01:39:14;;;;;;;104.18;67.53;;;179.80;2252.80;;;;;;4786120;24;20050;-76
2024/01/25 01:41:39;;;;;;;118.97;81.22;;;179.90;2252.80;;;;;;4773568;30;20084;-77
2024/01/25 01:44:05;;;;;;;89.05;61.60;;;180.00;2252.80;;;;;;4759831;30;20031;-76
2024/01/25 01:46:54;;;;;;;110.22;70.97;;;204.80;2252.80;;;;;;4772327;30;20059;-76
2024/01/25 01:49:26;;;;;;;94.25;55.88;;;204.90;2252.80;;;;;;4759441;30;20043;-76
2024/01/25 01:51:52;;;;;;;84.60;53.22;;;204.90;2252.80;;;;;;4772660;24;20063;-75
2024/01/25 01:54:18;;;;;;;93.10;54.00;;;204.90;2252.80;;;;;;4783735;30;20048;-77
2024/01/25 01:56:45;;;;;;;66.00;41.00;;;204.80;2252.80;;;;;;4799643;24;20050;-75
2024/01/25 01:59:11;;;;;;;50.55;29.77;;;204.90;2252.80;;;;;;4796201;24;20142;-76
2024/01/25 02:01:37;;;;;;;40.85;24.13;;;204.90;2252.80;;;;;;4819974;24;20055;-76
2024/01/25 02:04:06;;;;;;;35.33;22.08;;;204.90;2252.80;;;;;;4799811;29;20061;-75
2024/01/25 02:06:32;;;;;;;29.08;18.67;;;204.90;2252.80;;;;;;4798135;29;20039;-76
2024/01/25 02:08:58;;;;;;;32.88;22.25;;;204.80;2252.80;;;;;;4777273;30;20039;-75
2024/01/25 02:11:28;;;;;;;36.17;21.27;;;204.90;2252.80;;;;;;4795533;30;20035;-75
2024/01/25 02:13:54;;;;;;;26.10;15.60;;;204.90;2252.80;;;;;;4778968;30;20406;-75
2024/01/25 02:16:20;;;;;;;13.45;8.40;;;204.90;2252.80;;;;;;4778537;30;20028;-75
2024/01/25 02:18:47;;;;;;;11.65;7.32;;;204.90;2252.80;;;;;;4794522;29;20035;-76
2024/01/25 02:21:13;;;;;;;8.73;6.53;;;204.80;2252.80;;;;;;4779448;30;20039;-75
2024/01/25 02:23:39;;;;;;;12.23;7.80;;;204.80;2252.80;;;;;;4778537;29;20039;-77
2024/01/25 02:26:04;;;;;;;13.45;7.68;;;204.90;2252.80;;;;;;4794520;30;20023;-77
2024/01/25 02:28:30;;;;;;;27.45;17.80;;;204.90;2252.80;;;;;;4791798;29;20031;-76
2024/01/25 02:30:56;;;;;;;47.00;22.70;;;204.90;2252.80;;;;;;4794876;29;20039;-76
2024/01/25 02:33:22;;;;;;;37.22;23.33;;;204.90;2252.80;;;;;;4791934;30;20122;-75
2024/01/25 02:35:49;;;;;;;36.10;24.15;;;204.90;2252.80;;;;;;4783076;30;20038;-77
2024/01/25 02:38:14;;;;;;;25.60;16.65;;;204.90;2252.80;;;;;;4802055;24;20061;-77
2024/01/25 02:40:40;;;;;;;24.75;13.80;;;205.00;2252.80;;;;;;4803653;30;20498;-77
2024/01/25 02:43:07;;;;;;;19.58;12.38;;;205.00;2252.80;;;;;;4800017;29;20064;-77
2024/01/25 02:45:32;;;;;;;32.15;19.88;;;205.00;2252.80;;;;;;4798743;29;20035;-76
2024/01/25 02:48:02;;;;;;;17.15;11.07;;;204.80;2252.80;;;;;;4798979;29;20035;-78
2024/01/25 02:50:28;;;;;;;39.35;18.10;;;204.90;2252.80;;;;;;4800454;29;20035;-77
2024/01/25 02:52:54;;;;;;;50.42;23.77;;;204.80;2252.80;;;;;;4790471;29;20036;-75
2024/01/25 02:55:20;;;;;;;61.97;33.15;;;204.90;2252.80;;;;;;4779914;30;20402;-76
2024/01/25 02:57:46;;;;;;;19.30;11.48;;;205.00;2252.80;;;;;;4775879;30;20935;-76
2024/01/25 03:00:12;;;;;;;15.52;8.80;;;205.00;2252.80;;;;;;4786989;24;20521;-76
2024/01/25 03:02:38;;;;;;;16.92;9.68;;;205.00;2252.80;;;;;;4778043;29;20056;-77
2024/01/25 03:05:04;;;;;;;17.58;10.65;;;205.00;2252.80;;;;;;4776705;30;20046;-77
2024/01/25 03:07:29;;;;;;;14.02;10.00;;;204.80;2252.80;;;;;;4790871;29;20053;-76
2024/01/25 03:09:55;;;;;;;14.38;9.90;;;204.90;2252.80;;;;;;4778107;30;20039;-75
2024/01/25 03:12:21;;;;;;;19.73;13.05;;;205.00;2252.80;;;;;;4788212;29;20024;-75
2024/01/25 03:14:48;;;;;;;19.10;12.35;;;204.90;2252.80;;;;;;4791835;29;20045;-77
2024/01/25 03:17:14;;;;;;;19.85;12.60;;;204.90;2252.80;;;;;;4792010;30;20034;-76
2024/01/25 03:19:40;;;;;;;23.25;18.75;;;204.80;2252.80;;;;;;4773865;30;20451;-76
2024/01/25 03:22:05;;;;;;;16.02;10.32;;;204.80;2252.80;;;;;;4775747;29;20094;-75
2024/01/25 03:24:31;;;;;;;17.25;10.68;;;180.10;2252.80;;;;;;4791068;29;20106;-76
2024/01/25 03:26:57;;;;;;;16.63;11.38;;;180.10;2252.80;;;;;;4792287;30;20058;-76
2024/01/25 03:29:23;;;;;;;19.88;13.75;;;180.10;2252.80;;;;;;4801964;24;20038;-75
2024/01/25 03:31:50;;;;;;;32.45;18.98;;;179.90;2252.80;;;;;;4756518;30;20124;-76
2024/01/25 03:34:15;;;;;;;31.45;18.65;;;179.90;2252.80;;;;;;4761191;30;20130;-75
2024/01/25 03:36:41;;;;;;;27.83;18.75;;;179.90;2252.80;;;;;;4773020;30;20454;-77
2024/01/25 03:39:07;;;;;;;28.45;17.63;;;180.10;2252.80;;;;;;4756839;30;20039;-76
2024/01/25 03:41:33;;;;;;;38.13;24.40;;;204.80;2252.80;;;;;;4772569;30;20119;-76
2024/01/25 03:43:59;;;;;;;39.50;21.75;;;204.80;2252.80;;;;;;4774837;30;20379;-76
2024/01/25 03:46:24;;;;;;;29.60;20.08;;;204.80;2252.80;;;;;;4761556;30;20051;-76
2024/01/25 03:48:50;;;;;;;28.45;18.88;;;204.80;2252.80;;;;;;4760977;30;20068;-77
2024/01/25 03:51:26;;;;;;;37.53;21.85;;;204.90;2252.80;;;;;;4780663;29;20035;-78
2024/01/25 03:53:52;;;;;;;39.10;25.08;;;204.90;2252.80;;;;;;4778681;24;20514;-79
2024/01/25 03:56:18;;;;;;;31.73;18.88;;;204.80;2252.80;;;;;;4784613;24;20073;-76
2024/01/25 03:58:46;;;;;;;20.80;14.10;;;204.80;2252.80;;;;;;4816826;29;20051;-76
2024/01/25 04:01:13;;;;;;;18.17;13.82;;;180.10;2252.80;;;;;;4778051;24;20052;-76
2024/01/25 04:03:40;;;;;;;25.35;16.92;;;204.80;2252.80;;;;;;4800658;29;20150;-76
2024/01/25 04:06:06;;;;;;;97.45;58.97;;;204.90;2252.80;;;;;;4813409;24;20043;-77
2024/01/25 04:08:31;;;;;;;97.57;58.67;;;205.00;2252.80;;;;;;4793130;29;20045;-76
2024/01/25 04:10:59;;;;;;;44.78;27.95;;;205.00;2252.80;;;;;;4791991;29;20502;-76
2024/01/25 04:13:25;;;;;;;27.25;17.48;;;205.40;2252.80;;;;;;4789644;29;20035;-75
2024/01/25 04:15:51;;;;;;;25.42;16.52;;;205.10;2252.80;;;;;;4793674;29;20037;-77
2024/01/25 04:18:17;;;;;;;19.60;11.05;;;205.10;2252.80;;;;;;4806098;29;20031;-76
2024/01/25 04:20:44;;;;;;;14.35;8.85;;;205.00;2252.80;;;;;;4790970;29;20039;-75
2024/01/25 04:23:10;;;;;;;11.65;6.75;;;205.10;2252.80;;;;;;4817665;29;20386;-75
2024/01/25 04:25:36;;;;;;;11.27;6.32;;;205.10;2252.80;;;;;;4816962;24;20071;-77
2024/01/25 04:28:02;;;;;;;9.85;6.50;;;205.10;2252.80;;;;;;4799333;30;20050;-76
2024/01/25 04:30:30;;;;;;;10.63;5.13;;;205.00;2252.80;;;;;;4794941;29;20039;-76
2024/01/25 04:32:56;;;;;;;8.52;4.53;;;205.10;2252.80;;;;;;4798094;30;20094;-76
2024/01/25 04:35:22;;;;;;;8.18;4.53;;;205.10;2252.80;;;;;;4805475;24;20030;-75
2024/01/25 04:37:48;;;;;;;7.45;4.50;;;205.20;2252.80;;;;;;4795692;30;20048;-76
2024/01/25 04:40:14;;;;;;;6.47;4.25;;;205.20;2252.80;;;;;;4810190;24;20162;-76
2024/01/25 04:42:42;;;;;;;8.80;4.70;;;205.20;2252.80;;;;;;4816078;24;20055;-76
2024/01/25 04:45:08;;;;;;;7.60;5.13;;;205.30;2252.80;;;;;;4815962;24;20059;-77
2024/01/25 04:47:37;;;;;;;9.32;4.43;;;205.30;2252.80;;;;;;4806127;29;20071;-76
2024/01/25 04:50:31;;;;;;;8.20;4.82;;;205.30;2252.80;;;;;;4790556;30;20026;-76
2024/01/25 04:52:57;;;;;;;;;;;205.40;2252.80;;;;;;4796046;30;20110;-77
2024/01/25 04:55:22;;;;;;;8.13;4.45;;;205.40;2252.80;;;;;;4794342;30;19952;-76
2024/01/25 04:57:53;;;;;;;9.23;5.53;;;205.40;2252.80;;;;;;4792905;30;20110;-76
2024/01/25 05:00:19;;;;;;;8.60;5.18;;;205.30;2252.80;;;;;;4778958;30;20039;-76
2024/01/25 05:02:49;;;;;;;9.13;5.22;;;205.30;2252.80;;;;;;4777121;30;20047;-76
2024/01/25 05:05:15;;;;;;;28.15;25.48;;;205.30;2252.80;;;;;;4782341;30;20119;-77
2024/01/25 05:07:41;;;;;;;8.18;6.28;;;205.40;2252.80;;;;;;4803319;24;20640;-75
2024/01/25 05:10:07;;;;;;;23.02;12.63;;;205.40;2252.80;;;;;;4819444;24;20106;-76
2024/01/25 05:12:33;;;;;;;15.35;13.55;;;205.50;2252.80;;;;;;4798209;24;20055;-76
2024/01/25 05:14:59;;;;;;;10.90;7.18;;;205.40;2252.80;;;;;;4771679;30;20483;-75
2024/01/25 05:17:25;;;;;;;13.88;7.70;;;205.20;2252.80;;;;;;4789358;30;20055;-75
2024/01/25 05:19:51;;;;;;;13.40;9.93;;;205.20;2252.80;;;;;;4791364;30;20036;-74
2024/01/25 05:22:17;;;;;;;11.40;7.72;;;205.10;2252.80;;;;;;4777195;30;20978;-75
2024/01/25 05:24:43;;;;;;;7.38;5.38;;;205.10;2252.80;;;;;;4792027;29;20051;-75
2024/01/25 05:27:09;;;;;;;9.45;5.70;;;205.10;2252.80;;;;;;4776695;29;20024;-75
2024/01/25 05:29:37;;;;;;;11.23;6.43;;;205.10;2252.80;;;;;;4785915;24;20051;-75
2024/01/25 05:32:03;;;;;;;7.20;5.60;;;205.20;2252.80;;;;;;4795908;29;20122;-76
2024/01/25 05:34:28;;;;;;;6.63;3.70;;;205.10;2252.80;;;;;;4797808;29;20066;-77
2024/01/25 05:36:54;;;;;;;12.20;4.70;;;205.00;2252.80;;;;;;4806563;29;20400;-75
2024/01/25 05:39:30;;;;;;;7.68;4.53;;;205.10;2252.80;;;;;;4818254;29;20027;-77
2024/01/25 05:41:56;;;;;;;6.35;3.45;;;205.20;2252.80;;;;;;4821395;29;20023;-75
2024/01/25 05:44:22;;;;;;;26.45;14.93;;;205.20;2252.80;;;;;;4810018;24;20045;-74
2024/01/25 05:46:49;;;;;;;12.75;8.80;;;205.30;2252.80;;;;;;4776334;30;20458;-76
2024/01/25 05:49:15;;;;;;;7.53;4.45;;;205.30;2252.80;;;;;;4784234;30;20035;-74
2024/01/25 05:51:40;;;;;;;10.18;6.25;;;205.30;2252.80;;;;;;4852237;24;20074;-75
2024/01/25 05:54:08;;;;;;;9.55;6.13;;;205.30;2252.80;;;;;;4802979;30;20047;-75
2024/01/25 05:56:34;;;;;;;8.98;5.35;;;205.20;2252.80;;;;;;4804475;30;20035;-75
2024/01/25 05:59:01;;;;;;;8.73;6.00;;;205.20;2252.80;;;;;;4810406;29;20035;-75
2024/01/25 06:01:27;;;;;;;6.55;4.57;;;205.20;2252.80;;;;;;4807334;24;20192;-76
2024/01/25 06:03:53;;;;;;;12.75;6.00;;;205.30;2252.80;;;;;;4800852;29;20043;-75
2024/01/25 06:06:19;;;;;;;10.77;6.72;;;205.30;2252.80;;;;;;4792360;30;20034;-75
2024/01/25 06:08:45;;;;;;;16.10;8.60;;;205.40;2252.80;;;;;;4806541;24;20042;-76
2024/01/25 06:13:40;;;;;;;22.02;17.85;;;205.50;2252.80;;;;;;4810331;24;20052;-76
2024/01/25 06:16:06;;;;;;;12.60;7.35;;;205.40;2252.80;;;;;;4788619;29;20031;-76
2024/01/25 06:18:32;;;;;;;8.30;4.93;;;205.40;2252.80;;;;;;4800685;24;20070;-75
2024/01/25 06:20:58;;;;;;;7.90;4.88;;;205.50;2252.80;;;;;;4802025;24;20471;-76
2024/01/25 06:23:23;;;;;;;14.65;8.63;;;205.60;2252.80;;;;;;4805948;29;20046;-74
2024/01/25 06:25:49;;;;;;;12.77;8.23;;;205.70;2252.80;;;;;;4808020;29;20478;-75
2024/01/25 06:28:15;;;;;;;15.02;10.45;;;205.70;2252.80;;;;;;4925981;24;20108;-75
2024/01/25 06:30:40;;;;;;;30.20;27.27;;;205.60;2252.80;;;;;;4782226;30;20047;-75
2024/01/25 06:33:06;;;;;;;21.92;16.30;;;205.60;2252.80;;;;;;4794407;30;20106;-77
2024/01/25 06:35:32;;;;;;;8.70;5.80;;;205.40;2252.80;;;;;;4785741;24;20066;-75
2024/01/25 06:37:58;;;;;;;11.90;5.88;;;205.50;2252.80;;;;;;4790528;29;20016;-76
2024/01/25 06:40:23;;;;;;;29.50;15.48;;;205.60;2252.80;;;;;;4799452;30;20031;-74
2024/01/25 06:42:49;;;;;;;117.38;84.25;;;230.40;2252.80;;;;;;4798237;29;20035;-74
2024/01/25 06:45:15;;;;;;;121.15;86.07;;;205.40;2252.80;;;;;;4787287;24;20063;-76
2024/01/25 06:47:41;;;;;;;165.70;108.22;;;205.50;2252.80;;;;;;4782502;29;20519;-77
2024/01/25 06:50:07;;;;;;;102.13;66.68;;;205.50;2252.80;;;;;;4777048;30;20039;-75
2024/01/25 06:52:33;;;;;;;171.57;136.43;;;205.70;2252.80;;;;;;4764186;30;20028;-75
2024/01/25 06:54:59;;;;;;;59.92;44.22;;;230.50;2252.80;;;;;;4767816;24;20066;-75
2024/01/25 06:57:25;;;;;;;40.75;25.67;;;230.70;2252.80;;;;;;4762121;29;20024;-75
2024/01/25 06:59:50;;;;;;;35.63;23.55;;;231.00;2252.80;;;;;;4781972;29;20454;-74
2024/01/25 07:02:16;;;;;;;22.38;15.30;;;230.90;2252.80;;;;;;4780701;29;20032;-75
2024/01/25 07:04:43;;;;;;;16.02;11.85;;;231.00;2252.80;;;;;;4783910;29;20494;-75
2024/01/25 07:07:09;;;;;;;238.00;135.70;;;231.00;2252.80;;;;;;4808505;24;20083;-77
2024/01/25 07:09:35;;;;;;;100.38;69.13;;;231.00;2252.80;;;;;;4790524;30;20102;-75
2024/01/25 07:12:01;;;;;;;127.80;85.25;;;230.80;2252.80;;;;;;4791682;30;20065;-75
2024/01/25 07:14:27;;;;;;;106.07;72.22;;;231.20;2252.80;;;;;;4800506;29;20403;-75
2024/01/25 07:16:52;;;;;;;142.10;107.65;;;256.00;2252.80;;;;;;4807190;24;20517;-75
2024/01/25 07:19:19;;;;;;;125.35;92.88;;;256.30;2252.80;;;;;;4801373;24;20079;-75
2024/01/25 07:21:45;;;;;;;86.55;61.10;;;256.40;2252.80;;;;;;4803203;24;20062;-75
2024/01/25 07:24:11;;;;;;;69.65;53.00;;;256.50;2252.80;;;;;;4779396;30;20115;-76
2024/01/25 07:26:37;;;;;;;48.30;40.05;;;256.50;2252.80;;;;;;4779315;30;20019;-76
2024/01/25 07:29:03;;;;;;;50.63;38.97;;;256.50;2252.80;;;;;;4793283;29;20083;-76
2024/01/25 07:31:29;;;;;;;58.50;48.75;;;256.50;2252.80;;;;;;4797839;29;20031;-74
2024/01/25 07:33:55;;;;;;;44.72;33.20;;;256.60;2252.80;;;;;;4772501;24;20606;-74
2024/01/25 07:36:20;;;;;;;36.40;28.25;;;256.50;2252.80;;;;;;4762650;30;20060;-76
2024/01/25 07:38:48;;;;;;;25.88;22.38;;;256.50;2252.80;;;;;;4783598;29;20036;-75
2024/01/25 07:41:14;;;;;;;22.50;17.23;;;256.70;2252.80;;;;;;4783269;24;20008;-77
2024/01/25 07:43:41;;;;;;;37.67;27.10;;;256.70;2252.80;;;;;;4811210;24;20035;-75
2024/01/25 07:46:07;;;;;;;39.45;29.75;;;256.60;2252.80;;;;;;4808626;24;20056;-75
2024/01/25 07:48:36;;;;;;;42.60;28.58;;;256.50;2252.80;;;;;;4792377;29;20097;-78
2024/01/25 07:51:02;;;;;;;32.47;20.92;;;256.60;2252.80;;;;;;4777934;29;20389;-76
2024/01/25 07:53:28;;;;;;;31.92;26.05;;;256.70;2252.80;;;;;;4798309;29;20096;-76
2024/01/25 07:55:54;;;;;;;37.47;28.95;;;256.90;2252.80;;;;;;4786279;30;20474;-78
2024/01/25 07:58:20;;;;;;;42.80;30.00;;;281.70;2278.40;;;;;;4786620;30;20671;-77
2024/01/25 08:00:46;;;;;;;64.72;48.15;;;282.00;2278.40;;;;;;4786715;30;20031;-77
2024/01/25 08:03:12;;;;;;;79.28;57.08;;;332.80;2329.60;;;;;;4769148;30;20126;-78
2024/01/25 08:05:37;;;;;;;63.30;54.58;;;358.50;2329.60;;;;;;4785388;30;20107;-77
2024/01/25 08:08:03;;;;;;;49.50;43.35;;;358.80;2329.60;;;;;;4763255;30;20049;-80
2024/01/25 08:10:29;;;;;;;83.10;65.95;;;358.80;2329.60;;;;;;4772941;30;20038;-76
2024/01/25 08:12:55;;;;;;;97.60;61.72;;;358.70;2329.60;;;;;;4766073;30;20036;-78
2024/01/25 08:15:21;;;;;;;71.38;46.05;;;358.40;2329.60;;;;;;4764482;30;20040;-77
2024/01/25 08:17:46;;;;;;;183.50;116.93;;;333.40;2329.60;;;;;;4763445;30;20510;-78
2024/01/25 08:20:15;;;;;;;109.82;69.40;;;333.00;2329.60;;;;;;4752539;30;20132;-76
2024/01/25 08:22:41;;;;;;;94.38;68.80;;;332.80;2329.60;;;;;;4773626;30;20077;-78
2024/01/25 08:25:08;;;;;;;104.85;77.30;;;308.10;2304.00;;;;;;4769809;30;20059;-78
2024/01/25 08:27:34;;;;;;;98.20;63.83;;;307.60;2304.00;;;;;;4783218;30;20036;-76
2024/01/25 08:29:59;;;;;;;129.43;81.40;;;307.20;2304.00;;;;;;4771130;30;20095;-77
2024/01/25 08:32:25;;;;;;;300.55;195.07;;;282.50;2278.40;;;;;;4781514;30;20035;-76
2024/01/25 08:34:51;;;;;;;827.65;592.75;;;282.50;2278.40;;;;;;4777639;30;20181;-76
2024/01/25 08:37:17;;;;;;;360.00;277.90;;;282.40;2278.40;;;;;;4773280;30;20032;-79
2024/01/25 08:39:45;;;;;;;112.15;73.38;;;282.40;2278.40;;;;;;4772571;30;20063;-77
2024/01/25 08:42:11;;;;;;;109.53;66.88;;;282.40;2278.40;;;;;;4756625;30;20462;-77
2024/01/25 08:44:39;;;;;;;72.65;43.72;;;282.50;2278.40;;;;;;4780143;29;20038;-77
2024/01/25 08:47:05;;;;;;;99.35;59.00;;;282.50;2278.40;;;;;;4775968;30;20100;-77
2024/01/25 08:49:31;;;;;;;93.93;65.75;;;307.30;2304.00;;;;;;4777327;30;20055;-77
2024/01/25 08:52:03;;;;;;;94.53;71.82;;;307.30;2304.00;;;;;;4780311;30;20024;-79
2024/01/25 08:54:29;;;;;;;106.57;85.85;;;282.30;2278.40;;;;;;4776772;30;20076;-78
2024/01/25 08:56:56;;;;;;;167.88;124.53;;;282.00;2278.40;;;;;;4766264;30;20039;-77
2024/01/25 08:59:22;;;;;;;142.02;101.93;;;282.00;2278.40;;;;;;4757781;30;20040;-77
2024/01/25 09:01:48;;;;;;;167.50;122.82;;;282.00;2278.40;;;;;;4776375;30;20023;-78
2024/01/25 09:04:13;;;;;;;190.27;146.13;;;282.30;2278.40;;;;;;4775070;30;20062;-77
2024/01/25 09:06:39;;;;;;;209.63;163.35;;;307.20;2304.00;;;;;;4773585;30;20040;-76
2024/01/25 09:09:05;;;;;;;171.82;138.13;;;307.30;2304.00;;;;;;4762492;30;20629;-75
2024/01/25 09:11:31;;;;;;;102.88;64.10;;;307.40;2304.00;;;;;;4775931;30;20497;-75
2024/01/25 09:13:57;;;;;;;28.17;19.83;;;307.40;2304.00;;;;;;4779356;30;20345;-76
2024/01/25 09:16:22;;;;;;;91.80;56.25;;;307.40;2304.00;;;;;;4768796;30;20036;-76
2024/01/25 09:18:48;;;;;;;645.28;465.23;;;307.50;2304.00;;;;;;4744518;30;20440;-76
2024/01/25 09:21:14;;;;;;;784.35;539.58;;;281.80;2278.40;;;;;;4769111;30;20491;-76
2024/01/25 09:23:40;;;;;;;460.70;314.85;;;256.90;2252.80;;;;;;4769031;30;20640;-77
2024/01/25 09:26:06;;;;;;;235.82;171.10;;;256.50;2252.80;;;;;;4768841;30;20053;-77
2024/01/25 09:28:31;;;;;;;168.48;123.35;;;256.10;2252.80;;;;;;4769413;30;20480;-75
2024/01/25 09:30:57;;;;;;;162.65;125.50;;;256.00;2252.80;;;;;;4768748;30;20027;-78
2024/01/25 09:33:23;;;;;;;173.00;128.98;;;256.40;2252.80;;;;;;4768278;30;20101;-76
2024/01/25 09:35:49;;;;;;;157.13;117.22;;;256.70;2252.80;;;;;;4757355;30;20040;-75
2024/01/25 09:38:15;;;;;;;579.50;439.15;;;256.70;2252.80;;;;;;4777019;30;20501;-75
2024/01/25 09:40:40;;;;;;;240.95;174.65;;;256.20;2252.80;;;;;;4776687;30;20031;-77
2024/01/25 09:43:06;;;;;;;133.32;88.97;;;256.30;2252.80;;;;;;4768858;30;20032;-76
2024/01/25 09:45:32;;;;;;;143.70;122.53;;;256.60;2252.80;;;;;;4758479;30;20426;-78
2024/01/25 09:47:58;;;;;;;186.48;137.95;;;256.70;2252.80;;;;;;4768740;30;20089;-76
2024/01/25 09:50:24;;;;;;;139.23;114.07;;;281.60;2278.40;;;;;;4778000;30;20078;-76
2024/01/25 09:52:57;;;;;;;163.20;122.93;;;281.70;2278.40;;;;;;4767749;30;20031;-77
2024/01/25 09:55:26;;;;;;;194.52;144.60;;;281.70;2278.40;;;;;;4772382;30;20047;-77
2024/01/25 09:57:57;;;;;;;271.83;200.13;;;281.60;2278.40;;;;;;4773327;30;20028;-76
2024/01/25 10:00:23;;;;;;;251.23;182.80;;;281.70;2278.40;;;;;;4767376;30;20043;-77
2024/01/25 10:02:49;;;;;;;302.48;215.02;;;281.70;2278.40;;;;;;4765477;30;20392;-77
2024/01/25 10:05:17;;;;;;;269.05;195.07;;;281.70;2278.40;;;;;;4761767;30;20019;-75
2024/01/25 10:07:44;;;;;;;225.15;161.05;;;281.90;2278.40;;;;;;4767732;30;20050;-76
2024/01/25 10:10:12;;;;;;;208.85;154.30;;;282.00;2278.40;;;;;;4768440;30;20031;-78
2024/01/25 10:12:39;;;;;;;391.40;270.27;;;282.10;2278.40;;;;;;4768263;30;20480;-77
2024/01/25 10:15:06;;;;;;;284.52;210.27;;;281.80;2278.40;;;;;;4766697;30;20060;-77
2024/01/25 10:17:31;;;;;;;292.38;213.18;;;281.90;2278.40;;;;;;4767221;30;20051;-75
2024/01/25 10:19:57;;;;;;;261.17;201.48;;;282.10;2278.40;;;;;;4771872;30;20135;-77
2024/01/25 10:22:23;;;;;;;257.85;192.80;;;282.20;2278.40;;;;;;4770877;30;20039;-76
2024/01/25 10:24:53;;;;;;;250.68;185.90;;;282.30;2278.40;;;;;;4766628;30;20031;-77
2024/01/25 10:27:19;;;;;;;235.52;175.25;;;282.20;2278.40;;;;;;4767509;30;20026;-76
2024/01/25 10:29:45;;;;;;;222.27;161.35;;;282.50;2278.40;;;;;;4766612;30;20122;-76
2024/01/25 10:32:12;;;;;;;221.10;166.63;;;282.50;2278.40;;;;;;4766419;30;20103;-77
2024/01/25 10:34:38;;;;;;;135.75;98.82;;;307.50;2304.00;;;;;;4766718;30;20531;-77
2024/01/25 10:37:07;;;;;;;108.22;78.13;;;307.40;2304.00;;;;;;4767030;30;20502;-77
2024/01/25 10:39:33;;;;;;;91.53;66.07;;;307.40;2304.00;;;;;;4762531;30;20367;-76
2024/01/25 10:42:00;;;;;;;54.95;42.08;;;307.40;2304.00;;;;;;4755755;30;20125;-76
2024/01/25 10:44:26;;;;;;;61.95;45.75;;;307.50;2304.00;;;;;;4760152;30;20044;-75
2024/01/25 10:46:54;;;;;;;49.85;37.92;;;307.80;2304.00;;;;;;4767178;30;20063;-75
2024/01/25 10:49:20;;;;;;;67.25;44.38;;;307.90;2304.00;;;;;;4767939;30;20472;-76
2024/01/25 10:51:47;;;;;;;46.78;33.70;;;332.80;2329.60;;;;;;4769819;30;20030;-77
2024/01/25 10:54:14;;;;;;;38.00;31.05;;;308.10;2304.00;;;;;;4780336;30;20395;-76
2024/01/25 10:56:50;;;;;;;30.10;21.90;;;308.10;2304.00;;;;;;4767601;30;20438;-78
2024/01/25 10:59:17;;;;;;;25.95;19.27;;;308.00;2304.00;;;;;;4757688;30;20063;-76
2024/01/25 11:01:48;;;;;;;25.10;18.25;;;308.00;2304.00;;;;;;4772710;30;20115;-76
2024/01/25 11:04:18;;;;;;;32.22;21.30;;;308.10;2304.00;;;;;;4756914;30;20040;-76
2024/01/25 11:06:47;;;;;;;29.73;22.63;;;308.10;2304.00;;;;;;4768750;30;20032;-76
2024/01/25 11:09:25;;;;;;;18.52;12.60;;;332.80;2329.60;;;;;;4767984;30;20035;-76
2024/01/25 11:11:54;;;;;;;21.05;14.32;;;332.80;2329.60;;;;;;4769185;30;20476;-76
2024/01/25 11:14:20;;;;;;;21.67;15.60;;;332.80;2329.60;;;;;;4751990;30;20514;-77
2024/01/25 11:16:47;;;;;;;21.55;13.80;;;332.80;2329.60;;;;;;4753016;30;20035;-77
2024/01/25 11:19:17;;;;;;;17.33;12.25;;;332.90;2329.60;;;;;;4742490;30;20127;-79
2024/01/25 11:21:46;;;;;;;35.03;28.05;;;333.00;2329.60;;;;;;4779100;30;20444;-77
2024/01/25 11:24:14;;;;;;;18.85;14.02;;;333.20;2329.60;;;;;;4768552;30;20053;-79
2024/01/25 11:26:40;;;;;;;14.45;11.57;;;333.30;2329.60;;;;;;4768464;30;20047;-78
2024/01/25 11:29:06;;;;;;;12.55;6.78;;;333.40;2329.60;;;;;;4768107;30;20038;-79
2024/01/25 11:31:32;;;;;;;7.65;5.80;;;333.30;2329.60;;;;;;4768047;30;20032;-78
2024/01/25 11:34:02;;;;;;;9.50;5.95;;;333.30;2329.60;;;;;;4751976;30;20055;-79
2024/01/25 11:36:28;;;;;;;9.35;6.00;;;333.30;2329.60;;;;;;4768018;30;20479;-79
2024/01/25 11:38:54;;;;;;;8.93;5.25;;;333.40;2329.60;;;;;;4752060;30;20398;-78
2024/01/25 11:41:20;;;;;;;10.68;5.97;;;333.20;2329.60;;;;;;4751931;30;20028;-78
2024/01/25 11:43:49;;;;;;;8.95;7.22;;;333.30;2329.60;;;;;;4766731;30;20086;-78
2024/01/25 11:46:15;;;;;;;15.43;9.68;;;333.40;2329.60;;;;;;4766743;30;20491;-76
2024/01/25 11:48:41;;;;;;;9.30;6.95;;;333.40;2329.60;;;;;;4767104;30;20054;-78
2024/01/25 11:51:10;;;;;;;9.57;6.85;;;333.50;2329.60;;;;;;4768176;30;20035;-78
2024/01/25 11:53:36;;;;;;;13.88;9.32;;;333.60;2329.60;;;;;;4767206;30;20032;-78
2024/01/25 11:56:04;;;;;;;9.85;6.15;;;333.70;2329.60;;;;;;4767250;30;20066;-77
2024/01/25 11:58:30;;;;;;;15.70;10.15;;;333.70;2304.00;;;;;;4766223;30;20035;-78